createdAt,value
2022-11-20T00:01:25.266Z,6.90
2022-11-20T00:03:54.664Z,6.49
2022-11-20T00:06:23.346Z,5.62
2022-11-20T00:08:51.950Z,5.46
2022-11-20T00:11:21.855Z,5.33
2022-11-20T00:13:51.851Z,5.51
2022-11-20T00:16:22.014Z,5.70
2022-11-20T00:18:50.507Z,5.32
2022-11-20T00:21:26.102Z,5.84
2022-11-20T00:23:55.920Z,5.02
2022-11-20T00:26:25.682Z,5.73
2022-11-20T00:28:58.680Z,5.25
2022-11-20T00:31:27.203Z,5.07
2022-11-20T00:33:55.544Z,5.41
2022-11-20T00:36:25.695Z,5.83
2022-11-20T00:38:54.778Z,5.48
2022-11-20T00:41:23.255Z,5.98
2022-11-20T00:43:55.119Z,6.00
2022-11-20T00:46:24.750Z,5.98
2022-11-20T00:48:53.223Z,5.69
2022-11-20T00:51:24.226Z,4.86
2022-11-20T00:53:52.690Z,5.19
2022-11-20T00:56:21.808Z,5.16
2022-11-20T00:58:50.313Z,5.67
2022-11-20T01:01:25.468Z,5.13
2022-11-20T01:03:55.509Z,5.26
2022-11-20T01:06:28.495Z,5.67
2022-11-20T01:08:58.542Z,5.51
2022-11-20T01:11:28.693Z,4.90
2022-11-20T01:13:57.485Z,5.17
2022-11-20T01:16:28.157Z,5.57
2022-11-20T01:18:58.603Z,5.99
2022-11-20T01:21:27.967Z,5.93
2022-11-20T01:23:56.366Z,6.15
2022-11-20T01:26:29.820Z,6.06
2022-11-20T01:28:58.275Z,5.33
2022-11-20T01:31:32.336Z,5.03
2022-11-20T01:34:02.334Z,5.53
2022-11-20T01:36:31.337Z,5.16
2022-11-20T01:39:05.560Z,5.81
2022-11-20T01:41:52.786Z,5.56
2022-11-20T01:44:23.478Z,5.27
2022-11-20T01:47:02.128Z,5.78
2022-11-20T01:49:40.248Z,5.18
2022-11-20T01:52:23.232Z,6.04
2022-11-20T01:54:57.804Z,6.01
2022-11-20T01:57:26.488Z,6.42
2022-11-20T02:00:01.646Z,6.68
2022-11-20T02:02:29.922Z,6.29
2022-11-20T02:04:59.109Z,6.60
2022-11-20T02:07:27.536Z,6.59
2022-11-20T02:09:58.858Z,6.30
2022-11-20T02:12:45.727Z,6.75
2022-11-20T02:15:14.118Z,6.29
2022-11-20T02:17:42.441Z,5.86
2022-11-20T02:20:13.158Z,5.70
2022-11-20T02:22:50.382Z,6.47
2022-11-20T02:25:18.843Z,5.71
2022-11-20T02:27:47.144Z,5.71
2022-11-20T02:30:15.437Z,6.15
2022-11-20T02:32:43.772Z,5.32
2022-11-20T02:35:32.553Z,6.16
2022-11-20T02:38:02.120Z,6.09
2022-11-20T02:40:30.737Z,5.48
2022-11-20T02:42:59.164Z,5.35
2022-11-20T02:45:27.601Z,5.94
2022-11-20T02:47:56.537Z,5.64
2022-11-20T02:50:24.868Z,6.43
2022-11-20T02:52:53.161Z,6.12
2022-11-20T02:55:21.448Z,6.03
2022-11-20T02:57:49.741Z,5.99
2022-11-20T03:00:18.789Z,5.95
2022-11-20T03:02:47.104Z,6.01
2022-11-20T03:05:15.510Z,6.22
2022-11-20T03:07:45.032Z,6.99
2022-11-20T03:10:13.532Z,7.06
2022-11-20T03:12:41.850Z,6.32
2022-11-20T03:15:10.718Z,5.45
2022-11-20T03:17:39.082Z,5.24
2022-11-20T03:20:08.212Z,5.75
2022-11-20T03:22:36.595Z,6.17
2022-11-20T03:25:05.376Z,6.35
2022-11-20T03:27:35.651Z,6.22
2022-11-20T03:30:04.234Z,7.05
2022-11-20T03:32:32.563Z,6.66
2022-11-20T03:35:01.466Z,6.25
2022-11-20T03:37:29.814Z,6.52
2022-11-20T03:39:58.029Z,6.12
2022-11-20T03:42:44.821Z,6.42
2022-11-20T03:45:15.047Z,7.03
2022-11-20T03:47:43.920Z,7.23
2022-11-20T03:50:15.902Z,7.32
2022-11-20T03:52:44.288Z,6.85
2022-11-20T03:55:13.825Z,6.32
2022-11-20T03:57:42.148Z,6.39
2022-11-20T04:00:11.709Z,6.99
2022-11-20T04:02:40.012Z,7.06
2022-11-20T04:05:08.556Z,6.48
2022-11-20T04:07:37.034Z,7.26
2022-11-20T04:10:05.903Z,7.93
2022-11-20T04:12:34.800Z,7.89
2022-11-20T04:15:03.142Z,6.87
2022-11-20T04:17:31.476Z,7.04
2022-11-20T04:19:59.810Z,7.93
2022-11-20T04:22:28.146Z,7.13
2022-11-20T04:24:56.476Z,6.72
2022-11-20T04:27:24.771Z,6.48
2022-11-20T04:29:53.063Z,7.28
2022-11-20T04:32:21.897Z,7.27
2022-11-20T04:34:50.237Z,6.71
2022-11-20T04:37:18.506Z,7.20
2022-11-20T04:39:46.824Z,7.30
2022-11-20T04:42:30.029Z,7.09
2022-11-20T04:44:59.173Z,7.54
2022-11-20T04:47:27.537Z,7.07
2022-11-20T04:49:56.553Z,7.31
2022-11-20T04:52:24.975Z,7.72
2022-11-20T04:54:56.004Z,7.96
2022-11-20T04:57:24.311Z,7.25
2022-11-20T04:59:52.646Z,7.34
2022-11-20T05:02:21.549Z,6.89
2022-11-20T05:04:50.031Z,7.72
2022-11-20T05:07:18.428Z,7.54
2022-11-20T05:09:46.792Z,7.71
2022-11-20T05:12:15.121Z,7.23
2022-11-20T05:14:43.473Z,7.26
2022-11-20T05:17:13.278Z,7.54
2022-11-20T05:19:41.518Z,7.17
2022-11-20T05:22:10.299Z,7.23
2022-11-20T05:24:38.613Z,7.93
2022-11-20T05:27:07.652Z,7.22
2022-11-20T05:29:35.966Z,7.61
2022-11-20T05:32:07.156Z,7.46
2022-11-20T05:34:35.481Z,7.27
2022-11-20T05:37:04.220Z,6.93
2022-11-20T05:39:32.590Z,7.56
2022-11-20T05:42:19.623Z,7.36
2022-11-20T05:44:47.953Z,7.94
2022-11-20T05:47:16.325Z,8.23
2022-11-20T05:49:44.642Z,7.96
2022-11-20T05:52:12.955Z,7.78
2022-11-20T05:54:41.909Z,8.04
2022-11-20T05:57:10.281Z,7.82
2022-11-20T05:59:39.155Z,8.07
2022-11-20T06:02:07.425Z,8.37
2022-11-20T06:04:35.689Z,8.46
2022-11-20T06:07:04.128Z,8.75
2022-11-20T06:09:32.502Z,8.65
2022-11-20T06:12:00.884Z,9.09
2022-11-20T06:14:29.258Z,9.33
2022-11-20T06:16:57.644Z,9.14
2022-11-20T06:19:26.726Z,8.89
2022-11-20T06:21:55.032Z,9.33
2022-11-20T06:24:24.120Z,8.39
2022-11-20T06:26:52.459Z,8.64
2022-11-20T06:29:21.020Z,7.98
2022-11-20T06:31:49.622Z,8.51
2022-11-20T06:34:17.934Z,9.29
2022-11-20T06:36:46.273Z,9.28
2022-11-20T06:39:14.583Z,8.46
2022-11-20T06:41:42.981Z,8.62
2022-11-20T06:44:11.946Z,8.84
2022-11-20T06:46:40.311Z,9.18
2022-11-20T06:49:08.546Z,9.29
2022-11-20T06:51:37.438Z,8.84
2022-11-20T06:54:05.907Z,8.89
2022-11-20T06:56:35.374Z,9.01
2022-11-20T06:59:07.717Z,9.23
2022-11-20T07:01:36.322Z,8.97
2022-11-20T07:04:05.354Z,8.94
2022-11-20T07:06:33.847Z,8.59
2022-11-20T07:09:02.855Z,9.00
2022-11-20T07:11:31.694Z,9.26
2022-11-20T07:14:00.145Z,9.44
2022-11-20T07:16:29.939Z,9.49
2022-11-20T07:18:58.852Z,9.70
2022-11-20T07:21:27.196Z,9.54
2022-11-20T07:23:56.335Z,9.40
2022-11-20T07:26:25.150Z,9.56
2022-11-20T07:28:53.521Z,9.05
2022-11-20T07:31:22.087Z,9.52
2022-11-20T07:33:50.449Z,9.41
2022-11-20T07:36:18.798Z,9.42
2022-11-20T07:38:47.642Z,9.28
2022-11-20T07:41:16.568Z,9.43
2022-11-20T07:43:44.957Z,9.42
2022-11-20T07:46:14.717Z,8.96
2022-11-20T07:48:43.026Z,9.43
2022-11-20T07:51:11.438Z,9.51
2022-11-20T07:53:40.948Z,9.51
2022-11-20T07:56:09.324Z,9.68
2022-11-20T07:58:37.769Z,9.54
2022-11-20T08:01:07.430Z,9.61
2022-11-20T08:03:36.089Z,9.95
2022-11-20T08:06:04.644Z,9.50
2022-11-20T08:08:34.001Z,9.61
2022-11-20T08:11:35.093Z,9.50
2022-11-20T08:14:15.641Z,9.37
2022-11-20T08:16:48.219Z,8.95
2022-11-20T08:19:17.801Z,8.66
2022-11-20T08:21:46.310Z,9.20
2022-11-20T08:24:14.794Z,9.52
2022-11-20T08:26:43.704Z,8.97
2022-11-20T08:29:12.851Z,9.43
2022-11-20T08:31:41.186Z,9.60
2022-11-20T08:34:10.743Z,9.92
2022-11-20T08:36:41.652Z,10.08
2022-11-20T08:39:13.360Z,10.24
2022-11-20T08:41:45.169Z,9.90
2022-11-20T08:44:13.865Z,10.04
2022-11-20T08:46:44.801Z,9.82
2022-11-20T08:49:13.644Z,10.13
2022-11-20T08:51:42.530Z,10.16
2022-11-20T08:54:11.986Z,10.33
2022-11-20T08:56:40.317Z,10.08
2022-11-20T08:59:43.861Z,10.18
2022-11-20T09:01:56.998Z,10.20
2022-11-20T09:04:25.403Z,10.13
2022-11-20T09:06:53.789Z,10.35
2022-11-20T09:09:22.492Z,10.16
2022-11-20T09:11:51.550Z,10.39
2022-11-20T09:14:19.845Z,10.28
2022-11-20T09:16:48.776Z,10.42
2022-11-20T09:19:35.189Z,10.51
2022-11-20T09:22:04.424Z,10.47
2022-11-20T09:24:33.669Z,9.96
2022-11-20T09:27:05.892Z,10.29
2022-11-20T09:29:34.377Z,10.23
2022-11-20T09:32:02.794Z,10.40
2022-11-20T09:34:31.761Z,10.13
2022-11-20T09:37:04.509Z,9.58
2022-11-20T09:39:41.147Z,9.73
2022-11-20T09:42:26.134Z,9.87
2022-11-20T09:45:25.391Z,9.90
2022-11-20T09:48:01.112Z,9.43
2022-11-20T09:50:37.427Z,10.10
2022-11-20T09:53:31.928Z,9.62
2022-11-20T09:56:03.345Z,9.15
2022-11-20T09:58:43.129Z,9.38
2022-11-20T10:01:19.296Z,9.76
2022-11-20T10:04:13.329Z,9.76
2022-11-20T10:10:05.954Z,10.21
2022-11-20T10:13:02.134Z,10.12
2022-11-20T10:15:35.315Z,9.92
2022-11-20T10:18:09.616Z,10.08
2022-11-20T10:20:52.570Z,10.01
2022-11-20T10:23:35.774Z,9.06
2022-11-20T10:26:06.819Z,9.72
2022-11-20T10:29:03.429Z,8.94
2022-11-20T10:31:41.908Z,9.40
2022-11-20T10:34:36.467Z,9.71
2022-11-20T10:37:23.507Z,9.37
2022-11-20T10:40:22.228Z,9.55
2022-11-20T10:43:04.167Z,9.20
2022-11-20T10:46:00.427Z,9.03
2022-11-20T10:48:30.400Z,9.06
2022-11-20T10:51:09.516Z,8.66
2022-11-20T10:54:03.423Z,8.23
2022-11-20T10:56:50.447Z,7.19
2022-11-20T10:59:33.615Z,7.25
2022-11-20T11:02:03.570Z,7.58
2022-11-20T11:04:41.062Z,7.41
2022-11-20T11:07:22.665Z,7.13
2022-11-20T11:09:57.128Z,7.53
2022-11-20T11:12:29.454Z,7.04
2022-11-20T11:14:58.933Z,7.22
2022-11-20T11:17:32.203Z,7.79
2022-11-20T11:20:13.028Z,9.30
2022-11-20T11:22:56.460Z,8.97
2022-11-20T11:25:42.841Z,9.24
2022-11-20T11:28:22.449Z,8.95
2022-11-20T11:30:52.873Z,8.79
2022-11-20T11:33:24.628Z,9.60
2022-11-20T11:36:07.291Z,8.66
2022-11-20T11:38:49.690Z,9.41
2022-11-20T11:41:24.349Z,9.16
2022-11-20T11:44:13.761Z,9.50
2022-11-20T11:46:46.357Z,9.76
2022-11-20T11:49:18.419Z,9.79
2022-11-20T11:55:10.077Z,8.78
2022-11-20T11:58:22.262Z,9.14
2022-11-20T12:01:05.155Z,9.56
2022-11-20T12:03:43.648Z,9.65
2022-11-20T12:06:16.949Z,8.63
2022-11-20T12:09:15.291Z,7.77
2022-11-20T12:12:19.420Z,7.27
2022-11-20T12:38:23.262Z,7.28
2022-11-20T12:41:05.562Z,7.19
2022-11-20T12:44:23.711Z,7.35
2022-11-20T12:47:14.504Z,7.41
2022-11-20T12:49:50.461Z,7.41
2022-11-20T12:52:40.898Z,7.45
2022-11-20T12:56:05.838Z,7.20
2022-11-20T12:58:50.029Z,7.45
2022-11-20T13:02:01.180Z,7.58
2022-11-20T13:04:38.661Z,7.66
2022-11-20T13:07:14.217Z,7.95
2022-11-20T13:09:48.606Z,8.17
2022-11-20T13:12:49.440Z,8.73
2022-11-20T13:15:35.303Z,9.33
2022-11-20T13:18:05.395Z,9.28
2022-11-20T13:20:54.424Z,9.05
2022-11-20T13:23:28.976Z,9.25
2022-11-20T13:26:09.937Z,9.66
2022-11-20T13:28:40.949Z,9.17
2022-11-20T13:31:32.702Z,8.96
2022-11-20T13:34:11.956Z,9.00
2022-11-20T13:36:54.493Z,9.14
2022-11-20T13:39:35.411Z,9.10
2022-11-20T13:42:23.413Z,9.06
2022-11-20T13:44:57.356Z,9.32
2022-11-20T13:47:33.861Z,10.10
2022-11-20T13:50:11.950Z,10.53
2022-11-20T13:53:07.093Z,10.60
2022-11-20T13:56:04.897Z,10.58
2022-11-20T13:59:12.149Z,10.70
2022-11-20T14:01:45.782Z,10.63
2022-11-20T14:04:26.540Z,10.21
2022-11-20T14:06:59.440Z,9.78
2022-11-20T14:09:38.069Z,10.34
2022-11-20T14:12:19.551Z,10.64
2022-11-20T14:14:54.129Z,10.78
2022-11-20T14:17:38.529Z,10.87
2022-11-20T14:20:15.467Z,10.36
2022-11-20T14:22:57.045Z,10.27
2022-11-20T14:25:28.835Z,9.72
2022-11-20T14:28:03.033Z,9.48
2022-11-20T14:30:43.927Z,10.07
2022-11-20T14:33:13.521Z,10.20
2022-11-20T14:35:57.778Z,10.39
2022-11-20T14:38:28.016Z,10.10
2022-11-20T14:41:10.555Z,9.59
2022-11-20T14:43:39.209Z,9.56
2022-11-20T14:46:09.512Z,9.86
2022-11-20T14:48:52.433Z,9.72
2022-11-20T14:51:36.367Z,9.68
2022-11-20T14:54:23.513Z,9.99
2022-11-20T14:57:03.013Z,10.11
2022-11-20T14:59:33.107Z,10.02
2022-11-20T15:02:12.522Z,9.98
2022-11-20T15:04:53.949Z,10.14
2022-11-20T15:07:32.651Z,10.13
2022-11-20T15:10:07.924Z,10.30
2022-11-20T15:13:02.667Z,10.52
2022-11-20T15:15:49.183Z,10.82
2022-11-20T15:18:22.635Z,10.79
2022-11-20T15:20:52.435Z,10.98
2022-11-20T15:23:24.685Z,11.06
2022-11-20T15:25:54.454Z,10.94
2022-11-20T15:28:33.712Z,10.23
2022-11-20T15:31:05.074Z,10.60
2022-11-20T15:33:35.981Z,10.42
2022-11-20T15:36:07.200Z,10.64
2022-11-20T15:38:35.711Z,10.48
2022-11-20T15:41:06.429Z,10.77
2022-11-20T15:43:35.656Z,10.84
2022-11-20T15:46:12.964Z,10.90
2022-11-20T15:48:53.604Z,10.91
2022-11-20T15:51:33.351Z,10.89
2022-11-20T15:54:03.273Z,10.58
2022-11-20T15:56:34.411Z,10.46
2022-11-20T15:59:03.191Z,10.41
2022-11-20T16:01:32.403Z,10.69
2022-11-20T16:04:06.178Z,10.84
2022-11-20T16:06:37.394Z,10.93
2022-11-20T16:09:06.017Z,10.93
2022-11-20T16:11:38.052Z,10.80
2022-11-20T16:14:26.460Z,10.55
2022-11-20T16:16:55.146Z,10.44
2022-11-20T16:19:23.589Z,10.38
2022-11-20T16:21:52.626Z,9.49
2022-11-20T16:24:21.557Z,9.97
2022-11-20T16:26:50.334Z,10.21
2022-11-20T16:29:21.134Z,10.01
2022-11-20T16:31:50.724Z,9.69
2022-11-20T16:34:20.964Z,10.06
2022-11-20T16:36:54.384Z,10.21
2022-11-20T16:39:27.310Z,9.59
2022-11-20T16:41:57.656Z,9.67
2022-11-20T16:44:26.412Z,10.04
2022-11-20T16:46:55.861Z,10.45
2022-11-20T16:49:28.878Z,10.59
2022-11-20T16:52:08.612Z,10.68
2022-11-20T16:54:42.248Z,10.77
2022-11-20T16:57:12.379Z,10.43
2022-11-20T16:59:49.009Z,10.63
2022-11-20T17:02:20.965Z,10.19
2022-11-20T17:04:52.452Z,10.60
2022-11-20T17:07:22.103Z,10.76
2022-11-20T17:09:51.142Z,10.64
2022-11-20T17:12:22.405Z,10.49
2022-11-20T17:14:52.429Z,10.40
2022-11-20T17:17:27.467Z,10.45
2022-11-20T17:19:56.112Z,9.90
2022-11-20T17:22:25.282Z,10.26
2022-11-20T17:24:55.516Z,10.56
2022-11-20T17:27:27.073Z,10.23
2022-11-20T17:30:02.473Z,10.21
2022-11-20T17:32:32.132Z,10.01
2022-11-20T17:35:02.092Z,9.09
2022-11-20T17:37:33.942Z,8.56
2022-11-20T17:40:02.735Z,8.31
2022-11-20T17:42:37.769Z,8.07
2022-11-20T17:45:06.762Z,7.96
2022-11-20T17:47:37.386Z,7.83
2022-11-20T17:50:06.888Z,8.03
2022-11-20T17:52:36.144Z,7.70
2022-11-20T17:55:04.822Z,7.93
2022-11-20T17:57:53.756Z,8.01
2022-11-20T18:00:22.667Z,8.40
2022-11-20T18:02:58.182Z,8.37
2022-11-20T18:05:27.263Z,8.56
2022-11-20T18:07:55.795Z,8.66
2022-11-20T18:10:24.377Z,8.95
2022-11-20T18:12:56.249Z,9.60
2022-11-20T18:15:26.481Z,9.34
2022-11-20T18:17:55.717Z,9.14
2022-11-20T18:20:29.737Z,8.78
2022-11-20T18:23:03.152Z,9.04
2022-11-20T18:25:35.076Z,8.91
2022-11-20T18:28:04.960Z,8.96
2022-11-20T18:30:39.111Z,8.66
2022-11-20T18:33:09.738Z,9.24
2022-11-20T18:35:45.313Z,9.25
2022-11-20T18:38:17.005Z,9.12
2022-11-20T18:40:48.575Z,8.74
2022-11-20T18:43:36.582Z,9.03
2022-11-20T18:46:08.185Z,8.86
2022-11-20T18:48:38.941Z,9.40
2022-11-20T18:51:09.879Z,9.70
2022-11-20T18:53:40.845Z,9.63
2022-11-20T18:56:13.319Z,9.56
2022-11-20T18:58:46.457Z,9.69
2022-11-20T19:01:18.163Z,9.52
2022-11-20T19:03:47.880Z,9.22
2022-11-20T19:06:17.564Z,10.19
2022-11-20T19:08:46.795Z,10.11
2022-11-20T19:11:18.602Z,10.04
2022-11-20T19:13:48.129Z,10.39
2022-11-20T19:16:22.700Z,10.21
2022-11-20T19:18:52.723Z,10.53
2022-11-20T19:21:23.406Z,10.29
2022-11-20T19:23:55.891Z,10.49
2022-11-20T19:26:24.489Z,10.42
2022-11-20T19:28:53.328Z,10.65
2022-11-20T19:31:24.883Z,10.78
2022-11-20T19:33:56.651Z,10.80
2022-11-20T19:36:34.355Z,10.84
2022-11-20T19:39:03.341Z,10.59
2022-11-20T19:41:33.278Z,10.29
2022-11-20T19:44:14.406Z,10.54
2022-11-20T19:46:45.620Z,10.50
2022-11-20T19:49:17.457Z,10.62
2022-11-20T19:51:56.195Z,10.78
2022-11-20T19:54:31.574Z,9.77
2022-11-20T19:57:05.964Z,9.97
2022-11-20T19:59:43.960Z,10.21
2022-11-20T20:02:14.831Z,10.26
2022-11-20T20:04:46.883Z,9.78
2022-11-20T20:07:15.346Z,9.92
2022-11-20T20:09:45.380Z,10.16
2022-11-20T20:12:15.071Z,10.30
2022-11-20T20:14:46.143Z,10.29
2022-11-20T20:17:14.825Z,10.02
2022-11-20T20:19:45.738Z,10.30
2022-11-20T20:22:14.159Z,10.56
2022-11-20T20:24:44.187Z,10.42
2022-11-20T20:27:14.570Z,10.61
2022-11-20T20:29:43.044Z,10.53
2022-11-20T20:32:11.580Z,10.53
2022-11-20T20:34:41.829Z,10.58
2022-11-20T20:37:10.327Z,10.26
2022-11-20T20:39:38.799Z,10.35
2022-11-20T20:42:07.339Z,10.48
2022-11-20T20:44:54.560Z,10.37
2022-11-20T20:47:25.808Z,10.43
2022-11-20T20:49:54.158Z,10.64
2022-11-20T20:52:23.650Z,10.53
2022-11-20T20:54:52.072Z,10.60
2022-11-20T20:57:21.389Z,10.41
2022-11-20T20:59:50.680Z,10.19
2022-11-20T21:02:20.426Z,10.24
2022-11-20T21:04:49.542Z,10.37
2022-11-20T21:07:18.300Z,10.30
2022-11-20T21:09:47.010Z,10.15
2022-11-20T21:12:15.833Z,10.44
2022-11-20T21:14:44.319Z,10.34
2022-11-20T21:17:15.363Z,10.57
2022-11-20T21:19:44.038Z,10.72
2022-11-20T21:22:12.392Z,10.76
2022-11-20T21:24:40.798Z,10.56
2022-11-20T21:27:09.180Z,10.56
2022-11-20T21:29:37.522Z,10.44
2022-11-20T21:32:05.826Z,10.43
2022-11-20T21:34:34.344Z,10.62
2022-11-20T21:37:02.707Z,10.54
2022-11-20T21:39:31.540Z,10.24
2022-11-20T21:42:02.280Z,10.19
2022-11-20T21:44:31.808Z,10.30
2022-11-20T21:47:00.481Z,9.92
2022-11-20T21:49:28.890Z,9.83
2022-11-20T21:51:57.518Z,10.02
2022-11-20T21:54:26.837Z,10.33
2022-11-20T21:56:55.402Z,10.25
2022-11-20T21:59:23.919Z,10.15
2022-11-20T22:01:52.417Z,10.37
2022-11-20T22:04:21.622Z,9.81
2022-11-20T22:06:50.352Z,9.81
2022-11-20T22:09:18.752Z,10.02
2022-11-20T22:11:47.344Z,10.03
2022-11-20T22:14:21.491Z,9.87
2022-11-20T22:16:50.778Z,9.42
2022-11-20T22:19:20.372Z,9.84
2022-11-20T22:21:49.008Z,9.91
2022-11-20T22:24:18.604Z,9.61
2022-11-20T22:26:47.906Z,9.21
2022-11-20T22:29:17.890Z,9.60
2022-11-20T22:31:46.296Z,8.78
2022-11-20T22:34:14.777Z,7.83
2022-11-20T22:36:43.126Z,7.81
2022-11-20T22:39:11.414Z,7.50
2022-11-20T22:41:39.695Z,7.09
2022-11-20T22:44:08.370Z,7.54
2022-11-20T22:46:37.435Z,7.53
2022-11-20T22:49:07.113Z,7.77
2022-11-20T22:51:40.145Z,7.99
2022-11-20T22:54:09.685Z,8.15
2022-11-20T22:56:37.905Z,7.87
2022-11-20T22:59:06.844Z,7.79
2022-11-20T23:01:35.634Z,8.33
2022-11-20T23:04:09.800Z,8.90
2022-11-20T23:06:38.414Z,7.98
2022-11-20T23:09:07.141Z,8.58
2022-11-20T23:11:36.196Z,7.69
2022-11-20T23:14:12.769Z,8.19
2022-11-20T23:16:41.091Z,7.94
2022-11-20T23:19:11.451Z,8.50
2022-11-20T23:21:40.773Z,7.97
2022-11-20T23:24:10.499Z,8.54
2022-11-20T23:26:39.853Z,8.85
2022-11-20T23:29:08.348Z,9.15
2022-11-20T23:31:36.751Z,8.32
2022-11-20T23:34:05.151Z,9.17
2022-11-20T23:36:33.463Z,8.82
2022-11-20T23:39:03.073Z,8.25
2022-11-20T23:41:31.425Z,8.45
2022-11-20T23:43:59.740Z,9.02
2022-11-20T23:46:28.086Z,8.16
2022-11-20T23:48:56.439Z,9.27
2022-11-20T23:51:24.708Z,9.13
2022-11-20T23:53:52.988Z,8.86
2022-11-20T23:56:21.201Z,8.80
2022-11-20T23:58:50.214Z,9.51
